createdAt,value
2017-10-09T00:01:09.104Z,13.36
2017-10-09T00:02:19.125Z,13.27
2017-10-09T00:03:29.507Z,13.32
2017-10-09T00:04:39.534Z,13.36
2017-10-09T00:05:49.549Z,13.29
2017-10-09T00:06:59.886Z,13.27
2017-10-09T00:08:10.225Z,13.36
2017-10-09T00:09:20.575Z,13.35
2017-10-09T00:10:30.920Z,13.36
2017-10-09T00:11:41.264Z,13.35
2017-10-09T00:12:51.611Z,13.31
2017-10-09T00:14:01.957Z,13.35
2017-10-09T00:15:12.339Z,13.29
2017-10-09T00:16:22.352Z,13.44
2017-10-09T00:17:32.707Z,13.36
2017-10-09T00:18:43.035Z,13.35
2017-10-09T00:19:53.359Z,13.36
2017-10-09T00:21:03.694Z,13.28
2017-10-09T00:22:14.028Z,13.28
2017-10-09T00:23:24.377Z,13.28
2017-10-09T00:24:34.707Z,13.37
2017-10-09T00:25:45.042Z,13.44
2017-10-09T00:26:54.791Z,13.36
2017-10-09T00:28:04.804Z,13.31
2017-10-09T00:29:15.138Z,13.36
2017-10-09T00:30:25.147Z,13.35
2017-10-09T00:31:35.493Z,13.37
2017-10-09T00:32:45.877Z,13.35
2017-10-09T00:33:56.204Z,13.4
2017-10-09T00:35:06.227Z,13.36
2017-10-09T00:36:16.567Z,13.36
2017-10-09T00:37:26.579Z,13.37
2017-10-09T00:38:36.897Z,13.36
2017-10-09T00:39:47.269Z,13.32
2017-10-09T00:40:57.606Z,13.32
2017-10-09T00:42:07.946Z,13.39
2017-10-09T00:43:18.290Z,13.4
2017-10-09T00:44:28.716Z,13.37
2017-10-09T00:45:39.056Z,13.32
2017-10-09T00:46:49.123Z,13.35
2017-10-09T00:47:59.138Z,13.35
2017-10-09T00:49:08.830Z,13.35
2017-10-09T00:50:19.222Z,13.28
2017-10-09T00:51:29.559Z,13.19
2017-10-09T00:52:39.578Z,13.28
2017-10-09T00:53:49.914Z,13.21
2017-10-09T00:54:59.607Z,13.31
2017-10-09T00:56:09.932Z,13.27
2017-10-09T00:57:19.623Z,13.35
2017-10-09T00:58:29.957Z,13.35
2017-10-09T00:59:39.967Z,13.27
2017-10-09T01:00:50.300Z,13.27
2017-10-09T01:02:00.329Z,13.25
2017-10-09T01:03:10.664Z,13.28
2017-10-09T01:04:21.006Z,13.24
2017-10-09T01:05:31.026Z,13.31
2017-10-09T01:06:41.368Z,13.31
2017-10-09T01:07:51.740Z,13.25
2017-10-09T01:09:02.085Z,13.31
2017-10-09T01:10:12.421Z,13.32
2017-10-09T01:11:22.756Z,13.21
2017-10-09T01:12:33.088Z,13.17
2017-10-09T01:13:43.113Z,13.24
2017-10-09T01:14:53.440Z,13.19
2017-10-09T01:16:03.772Z,13.24
2017-10-09T01:17:13.792Z,13.16
2017-10-09T01:18:24.129Z,13.19
2017-10-09T01:19:34.480Z,13.19
2017-10-09T01:20:44.814Z,13.17
2017-10-09T01:21:54.515Z,13.14
2017-10-09T01:23:04.539Z,13.07
2017-10-09T01:24:14.239Z,13.16
2017-10-09T01:25:24.250Z,13.09
2017-10-09T01:26:34.587Z,13.01
2017-10-09T01:27:44.926Z,13.01
2017-10-09T01:28:54.965Z,13.02
2017-10-09T01:30:04.980Z,13.02
2017-10-09T01:31:15.365Z,12.99
2017-10-09T01:32:25.705Z,13.02
2017-10-09T01:33:36.027Z,12.95
2017-10-09T01:34:46.044Z,12.98
2017-10-09T01:35:56.379Z,12.98
2017-10-09T01:37:06.442Z,12.96
2017-10-09T01:38:16.775Z,12.91
2017-10-09T01:39:27.096Z,12.77
2017-10-09T01:40:36.803Z,12.84
2017-10-09T01:41:47.127Z,12.84
2017-10-09T01:42:57.476Z,12.76
2017-10-09T01:44:07.510Z,12.71
2017-10-09T01:45:17.521Z,12.84
2017-10-09T01:46:27.541Z,12.84
2017-10-09T01:47:37.559Z,12.77
2017-10-09T01:48:47.591Z,12.73
2017-10-09T01:49:57.965Z,12.8
2017-10-09T01:51:07.672Z,12.74
2017-10-09T01:52:17.680Z,12.77
2017-10-09T01:53:28.012Z,12.77
2017-10-09T01:54:38.334Z,12.73
2017-10-09T01:55:48.660Z,12.62
2017-10-09T01:56:58.998Z,12.71
2017-10-09T01:58:09.334Z,12.74
2017-10-09T01:59:19.663Z,12.73
2017-10-09T02:00:30.003Z,12.77
2017-10-09T02:01:40.027Z,12.7
2017-10-09T02:02:50.352Z,12.63
2017-10-09T02:04:00.679Z,12.62
2017-10-09T02:05:10.998Z,12.7
2017-10-09T02:06:21.014Z,12.62
2017-10-09T02:07:31.028Z,12.74
2017-10-09T02:08:41.046Z,12.77
2017-10-09T02:09:51.373Z,12.78
2017-10-09T02:11:01.391Z,12.78
2017-10-09T02:12:11.789Z,12.74
2017-10-09T02:13:21.797Z,12.8
2017-10-09T02:14:32.129Z,12.7
2017-10-09T02:15:42.156Z,12.73
2017-10-09T02:16:52.158Z,12.69
2017-10-09T02:18:02.485Z,12.76
2017-10-09T02:19:13.428Z,12.76
2017-10-09T02:20:23.788Z,12.76
2017-10-09T02:21:33.814Z,12.71
2017-10-09T02:22:44.192Z,12.63
2017-10-09T02:23:54.514Z,12.59
2017-10-09T02:25:04.846Z,12.62
2017-10-09T02:26:15.182Z,12.63
2017-10-09T02:27:25.511Z,12.61
2017-10-09T02:28:35.840Z,12.59
2017-10-09T02:29:46.202Z,12.61
2017-10-09T02:30:56.534Z,12.55
2017-10-09T02:32:07.580Z,12.52
2017-10-09T02:33:17.912Z,12.55
2017-10-09T02:34:28.240Z,12.45
2017-10-09T02:35:38.599Z,12.47
2017-10-09T02:36:48.942Z,12.4
2017-10-09T02:37:59.271Z,12.41
2017-10-09T02:39:09.303Z,12.44
2017-10-09T02:40:19.629Z,12.4
2017-10-09T02:41:29.962Z,12.26
2017-10-09T02:42:40.296Z,12.28
2017-10-09T02:43:50.642Z,12.31
2017-10-09T02:45:00.660Z,12.2
2017-10-09T02:46:10.354Z,12.22
2017-10-09T02:47:20.429Z,12.29
2017-10-09T02:48:30.447Z,12.19
2017-10-09T02:49:40.770Z,12.13
2017-10-09T02:50:51.496Z,12.16
2017-10-09T02:52:01.816Z,12.11
2017-10-09T02:53:12.174Z,12.11
2017-10-09T02:54:22.519Z,12
2017-10-09T02:55:32.227Z,12.11
2017-10-09T02:56:42.573Z,12.08
2017-10-09T02:57:52.600Z,12
2017-10-09T02:59:02.931Z,11.98
2017-10-09T03:00:12.953Z,11.97
2017-10-09T03:01:22.661Z,11.89
2017-10-09T03:33:26.803Z,9.08
2017-10-09T03:34:37.128Z,8.9
2017-10-09T03:35:47.452Z,8.97
2017-10-09T03:36:57.457Z,8.94
2017-10-09T03:38:07.781Z,9.09
2017-10-09T03:39:18.127Z,9.08
2017-10-09T03:40:27.836Z,9.2
2017-10-09T03:41:37.864Z,9.29
2017-10-09T03:42:48.182Z,9.47
2017-10-09T03:43:58.508Z,9.63
2017-10-09T03:45:08.847Z,9.66
2017-10-09T03:46:19.190Z,9.84
2017-10-09T03:47:29.535Z,9.93
2017-10-09T03:48:39.541Z,9.99
2017-10-09T03:49:49.872Z,10.15
2017-10-09T03:50:59.256Z,10.26
2017-10-09T03:52:09.576Z,10.38
2017-10-09T03:53:19.901Z,10.47
2017-10-09T03:54:30.230Z,10.57
2017-10-09T03:55:40.560Z,10.55
2017-10-09T03:56:50.893Z,10.69
2017-10-09T03:58:00.909Z,10.75
2017-10-09T03:59:11.275Z,10.7
2017-10-09T04:00:21.614Z,10.83
2017-10-09T04:01:31.946Z,10.79
2017-10-09T04:02:42.291Z,10.88
2017-10-09T04:03:52.639Z,10.83
2017-10-09T04:05:02.340Z,10.91
2017-10-09T04:06:12.667Z,10.95
2017-10-09T04:07:22.996Z,11.05
2017-10-09T04:08:33.420Z,10.94
2017-10-09T04:09:43.432Z,10.98
2017-10-09T04:10:53.769Z,11
2017-10-09T04:12:03.777Z,11.05
2017-10-09T04:13:13.799Z,11.09
2017-10-09T04:14:24.171Z,11
2017-10-09T04:15:34.501Z,11.15
2017-10-09T04:16:44.829Z,11.05
2017-10-09T04:17:55.166Z,11.12
2017-10-09T04:19:05.493Z,11.02
2017-10-09T04:20:15.835Z,11.1
2017-10-09T04:21:25.842Z,11.05
2017-10-09T04:22:35.872Z,11.13
2017-10-09T04:23:46.209Z,11.1
2017-10-09T04:24:56.230Z,11.16
2017-10-09T04:26:06.242Z,11.15
2017-10-09T04:27:16.268Z,11.12
2017-10-09T04:28:26.332Z,11.09
2017-10-09T04:29:36.671Z,11.12
2017-10-09T04:30:46.679Z,11.13
2017-10-09T04:31:57.059Z,11.13
2017-10-09T04:33:07.088Z,11.13
2017-10-09T04:34:17.450Z,11.16
2017-10-09T04:35:27.788Z,11.03
2017-10-09T04:36:38.125Z,11.06
2017-10-09T04:37:48.507Z,11.18
2017-10-09T04:38:58.537Z,11.09
2017-10-09T04:40:08.858Z,11.15
2017-10-09T04:41:19.186Z,11.03
2017-10-09T04:42:29.204Z,11.1
2017-10-09T04:43:39.597Z,11.1
2017-10-09T04:44:49.606Z,11.2
2017-10-09T04:45:59.943Z,11.18
2017-10-09T04:47:10.268Z,11.12
2017-10-09T04:48:20.282Z,11.18
2017-10-09T04:49:30.310Z,11.12
2017-10-09T04:50:41.694Z,11.12
2017-10-09T04:51:51.702Z,11.18
2017-10-09T04:53:02.023Z,11.1
2017-10-09T04:54:12.341Z,11.13
2017-10-09T04:55:22.713Z,11.15
2017-10-09T04:56:33.048Z,11.13
2017-10-09T04:57:43.384Z,11.2
2017-10-09T04:58:53.405Z,11.2
2017-10-09T05:00:03.094Z,11.28
2017-10-09T05:01:12.810Z,11.27
2017-10-09T05:02:23.129Z,11.18
2017-10-09T05:03:33.458Z,11.2
2017-10-09T05:04:43.476Z,11.21
2017-10-09T05:05:53.688Z,11.18
2017-10-09T05:07:04.101Z,11.23
2017-10-09T05:08:14.436Z,11.2
2017-10-09T05:09:24.760Z,11.26
2017-10-09T05:10:35.094Z,11.23
2017-10-09T05:11:45.451Z,11.31
2017-10-09T05:12:55.523Z,11.33
2017-10-09T05:14:05.858Z,11.39
2017-10-09T05:15:16.190Z,11.39
2017-10-09T05:16:26.524Z,11.41
2017-10-09T05:17:36.857Z,11.41
2017-10-09T05:18:47.253Z,11.41
2017-10-09T05:19:57.586Z,11.52
2017-10-09T05:21:07.931Z,11.49
2017-10-09T05:22:18.262Z,11.59
2017-10-09T05:23:28.588Z,11.52
2017-10-09T05:24:38.936Z,11.52
2017-10-09T05:25:49.276Z,11.52
2017-10-09T05:26:59.603Z,11.6
2017-10-09T05:28:09.935Z,11.57
2017-10-09T05:29:20.265Z,11.61
2017-10-09T05:30:30.600Z,11.66
2017-10-09T05:31:40.958Z,11.7
2017-10-09T05:32:51.288Z,11.71
2017-10-09T05:34:01.610Z,11.7
2017-10-09T05:35:11.945Z,11.7
2017-10-09T05:36:22.282Z,11.78
2017-10-09T05:37:32.610Z,11.75
2017-10-09T05:38:42.922Z,11.75
2017-10-09T05:39:52.948Z,11.79
2017-10-09T05:41:02.970Z,11.76
2017-10-09T05:42:13.313Z,11.81
2017-10-09T05:43:23.657Z,11.84
2017-10-09T05:44:33.981Z,11.82
2017-10-09T05:45:44.312Z,11.88
2017-10-09T05:46:54.337Z,11.94
2017-10-09T05:48:04.665Z,11.94
2017-10-09T05:49:14.992Z,11.89
2017-10-09T05:50:25.008Z,11.91
2017-10-09T05:51:35.335Z,12.03
2017-10-09T05:52:45.652Z,12.03
2017-10-09T05:53:55.989Z,12.03
2017-10-09T05:55:06.020Z,12.07
2017-10-09T05:56:16.033Z,12.11
2017-10-09T05:57:26.355Z,12.13
2017-10-09T05:58:36.690Z,12.18
2017-10-09T05:59:46.773Z,12.2
2017-10-09T06:00:56.776Z,12.2
2017-10-09T06:02:07.125Z,12.18
2017-10-09T06:03:17.448Z,12.36
2017-10-09T06:04:27.782Z,12.36
2017-10-09T06:05:38.110Z,12.34
2017-10-09T06:06:48.136Z,12.36
2017-10-09T06:07:58.468Z,12.41
2017-10-09T06:09:08.783Z,12.47
2017-10-09T06:10:19.149Z,12.51
2017-10-09T06:11:29.516Z,12.55
2017-10-09T06:12:39.535Z,12.56
2017-10-09T06:13:49.546Z,12.51
2017-10-09T06:14:59.880Z,12.59
2017-10-09T06:16:09.905Z,12.65
2017-10-09T06:17:20.875Z,12.71
2017-10-09T06:18:30.573Z,12.77
2017-10-09T06:19:40.907Z,12.76
2017-10-09T06:20:51.236Z,12.81
2017-10-09T06:22:01.242Z,12.86
2017-10-09T06:23:11.265Z,12.86
2017-10-09T06:24:21.596Z,12.92
2017-10-09T06:25:31.932Z,12.95
2017-10-09T06:26:42.268Z,13.06
2017-10-09T06:27:52.655Z,13.16
2017-10-09T06:29:02.411Z,13.17
2017-10-09T06:30:12.436Z,13.2
2017-10-09T06:31:22.765Z,13.28
2017-10-09T06:32:32.800Z,13.28
2017-10-09T06:33:42.830Z,13.35
2017-10-09T06:34:53.218Z,13.35
2017-10-09T06:36:03.556Z,13.53
2017-10-09T06:37:13.906Z,13.5
2017-10-09T06:38:24.254Z,13.53
2017-10-09T06:39:34.278Z,13.58
2017-10-09T06:40:44.351Z,13.55
2017-10-09T06:41:54.360Z,13.57
2017-10-09T06:43:04.690Z,13.73
2017-10-09T06:44:15.034Z,13.69
2017-10-09T06:45:25.352Z,13.69
2017-10-09T06:46:35.684Z,13.79
2017-10-09T06:47:46.007Z,13.84
2017-10-09T06:48:56.328Z,13.95
2017-10-09T06:50:06.354Z,13.9
2017-10-09T06:51:16.685Z,13.88
2017-10-09T06:52:26.727Z,13.97
2017-10-09T06:53:37.051Z,13.99
2017-10-09T06:54:47.401Z,14.11
2017-10-09T06:55:57.724Z,14.05
2017-10-09T06:57:08.067Z,14.13
2017-10-09T06:58:18.452Z,14.16
2017-10-09T06:59:28.785Z,14.2
2017-10-09T07:00:38.800Z,14.34
2017-10-09T07:01:49.139Z,14.28
2017-10-09T07:02:59.175Z,14.42
2017-10-09T07:04:09.234Z,14.51
2017-10-09T07:05:19.568Z,14.51
2017-10-09T07:06:29.593Z,14.64
2017-10-09T07:07:39.916Z,14.74
2017-10-09T07:08:50.261Z,14.64
2017-10-09T07:10:00.603Z,14.69
2017-10-09T07:11:10.929Z,14.8
2017-10-09T07:12:20.940Z,14.74
2017-10-09T07:13:30.960Z,14.9
2017-10-09T07:14:41.311Z,14.93
2017-10-09T07:15:51.328Z,14.89
2017-10-09T07:17:01.650Z,14.98
2017-10-09T07:18:11.993Z,15.04
2017-10-09T07:19:22.333Z,15.12
2017-10-09T07:20:32.358Z,15.26
2017-10-09T07:21:42.691Z,15.25
2017-10-09T07:22:52.719Z,15.27
2017-10-09T07:24:02.085Z,15.34
2017-10-09T07:25:12.421Z,15.33
2017-10-09T07:26:22.760Z,15.37
2017-10-09T07:27:33.106Z,15.49
2017-10-09T07:28:43.122Z,15.41
2017-10-09T07:29:53.474Z,15.55
2017-10-09T07:31:03.820Z,15.62
2017-10-09T07:32:13.841Z,15.68
2017-10-09T07:33:24.168Z,15.62
2017-10-09T07:34:34.507Z,15.74
2017-10-09T07:35:44.515Z,15.78
2017-10-09T07:36:54.854Z,15.74
2017-10-09T07:38:05.202Z,15.83
2017-10-09T07:39:15.537Z,15.8
2017-10-09T07:40:25.865Z,15.84
2017-10-09T07:41:35.883Z,16
2017-10-09T07:42:46.218Z,16.02
2017-10-09T07:43:56.561Z,16.08
2017-10-09T07:45:06.595Z,16.11
2017-10-09T07:46:16.614Z,16.21
2017-10-09T07:47:27.175Z,16.26
2017-10-09T07:48:37.503Z,16.26
2017-10-09T07:49:47.831Z,16.25
2017-10-09T07:50:58.173Z,16.3
2017-10-09T07:52:08.515Z,16.48
2017-10-09T07:53:18.913Z,16.4
2017-10-09T07:54:29.261Z,16.44
2017-10-09T07:55:39.284Z,16.54
2017-10-09T07:56:49.615Z,16.63
2017-10-09T07:57:59.954Z,16.58
2017-10-09T07:59:10.342Z,16.57
2017-10-09T08:00:20.695Z,16.66
2017-10-09T08:01:31.031Z,16.8
2017-10-09T08:02:41.050Z,16.55
2017-10-09T08:03:51.409Z,16.48
2017-10-09T08:05:01.743Z,16.34
2017-10-09T08:06:12.087Z,16.48
2017-10-09T08:07:22.437Z,16.45
2017-10-09T08:08:32.798Z,16.44
2017-10-09T08:09:42.826Z,16.62
2017-10-09T08:10:53.206Z,16.72
2017-10-09T08:12:02.904Z,17.06
2017-10-09T08:13:13.239Z,17.21
2017-10-09T08:14:23.248Z,17.28
2017-10-09T08:15:33.642Z,17.35
2017-10-09T08:16:44.040Z,17.49
2017-10-09T08:17:54.384Z,17.54
2017-10-09T08:19:04.724Z,17.68
2017-10-09T08:20:15.057Z,17.77
2017-10-09T08:21:25.402Z,17.83
2017-10-09T08:22:35.809Z,17.99
2017-10-09T08:23:46.155Z,18.05
2017-10-09T08:24:55.848Z,18.08
2017-10-09T08:26:06.193Z,18.13
2017-10-09T08:27:16.541Z,18.19
2017-10-09T08:28:26.959Z,18.2
2017-10-09T08:29:37.292Z,18.2
2017-10-09T08:30:47.633Z,18.24
2017-10-09T08:31:57.657Z,18.16
2017-10-09T08:33:07.670Z,18.16
2017-10-09T08:34:18.019Z,18.27
2017-10-09T08:35:28.362Z,18.32
2017-10-09T08:36:38.695Z,18.32
2017-10-09T08:37:49.032Z,18.27
2017-10-09T08:38:59.362Z,18.29
2017-10-09T08:40:09.450Z,18.27
2017-10-09T08:41:20.023Z,18.31
2017-10-09T08:42:31.057Z,18.36
2017-10-09T08:43:41.636Z,18.41
2017-10-09T08:44:51.648Z,18.39
2017-10-09T08:46:02.043Z,18.44
2017-10-09T08:47:12.357Z,18.5
2017-10-09T08:48:22.712Z,18.45
2017-10-09T08:49:33.039Z,18.61
2017-10-09T08:50:43.377Z,18.49
2017-10-09T08:51:53.439Z,18.51
2017-10-09T08:53:03.789Z,18.59
2017-10-09T08:54:14.149Z,18.53
2017-10-09T08:55:24.490Z,18.41
2017-10-09T08:56:34.835Z,18.35
2017-10-09T08:57:45.226Z,18.19
2017-10-09T08:58:55.558Z,17.9
2017-10-09T09:00:05.585Z,18.08
2017-10-09T09:01:15.924Z,18.21
2017-10-09T09:02:25.946Z,18.23
2017-10-09T09:03:36.325Z,18.41
2017-10-09T09:04:46.341Z,18.45
2017-10-09T09:05:56.678Z,18.61
2017-10-09T09:07:06.695Z,18.72
2017-10-09T09:08:17.037Z,18.9
2017-10-09T09:09:27.434Z,18.86
2017-10-09T09:10:37.445Z,18.87
2017-10-09T09:11:47.784Z,18.94
2017-10-09T09:12:58.106Z,19.09
2017-10-09T09:14:08.460Z,19.1
2017-10-09T09:15:18.934Z,19.12
2017-10-09T09:16:28.646Z,19.15
2017-10-09T09:17:38.976Z,19.19
2017-10-09T09:18:49.314Z,19.19
2017-10-09T09:19:59.349Z,19.28
2017-10-09T09:21:09.751Z,19.27
2017-10-09T09:22:20.098Z,19.27
2017-10-09T09:23:30.432Z,19.32
2017-10-09T09:24:40.868Z,19.35
2017-10-09T09:25:51.222Z,19.42
2017-10-09T09:27:01.602Z,19.49
2017-10-09T09:28:11.942Z,19.52
2017-10-09T09:29:21.965Z,19.67
2017-10-09T09:30:32.305Z,19.61
2017-10-09T09:31:42.643Z,19.74
2017-10-09T09:32:52.709Z,19.74
2017-10-09T09:34:02.732Z,19.79
2017-10-09T09:35:13.092Z,19.83
2017-10-09T09:36:23.424Z,19.9
2017-10-09T09:37:33.764Z,19.82
2017-10-09T09:38:44.144Z,19.87
2017-10-09T09:39:54.185Z,19.8
2017-10-09T09:41:03.921Z,19.61
2017-10-09T09:42:14.266Z,19.89
2017-10-09T09:43:24.281Z,20.07
2017-10-09T09:44:34.377Z,20.18
2017-10-09T09:45:44.722Z,20.27
2017-10-09T09:46:55.106Z,20.35
2017-10-09T09:48:05.479Z,20.48
2017-10-09T09:49:15.816Z,20.42
2017-10-09T09:50:25.915Z,20.58
2017-10-09T09:51:36.259Z,20.6
2017-10-09T09:52:46.660Z,20.75
2017-10-09T09:53:56.712Z,20.71
2017-10-09T09:55:07.052Z,20.72
2017-10-09T09:56:17.445Z,20.41
2017-10-09T09:57:28.255Z,19.83
2017-10-09T09:58:38.599Z,20.05
2017-10-09T09:59:49.190Z,20.04
2017-10-09T10:00:59.526Z,20.26
2017-10-09T10:02:09.864Z,20.25
2017-10-09T10:03:19.571Z,20.16
2017-10-09T10:04:29.598Z,19.68
2017-10-09T10:05:39.649Z,19.87
2017-10-09T10:06:50.005Z,19.83
2017-10-09T10:07:59.442Z,19.45
2017-10-09T10:09:09.465Z,19.07
2017-10-09T10:10:19.510Z,18.94
2017-10-09T10:11:29.847Z,19.13
2017-10-09T10:12:39.551Z,19.79
2017-10-09T10:13:49.628Z,20.18
2017-10-09T10:14:59.978Z,20.44
2017-10-09T10:16:10.015Z,20.71
2017-10-09T10:17:19.719Z,20.81
2017-10-09T10:18:30.059Z,20.93
2017-10-09T10:19:40.459Z,20.98
2017-10-09T10:20:50.810Z,21.04
2017-10-09T10:22:00.842Z,21.22
2017-10-09T10:23:11.180Z,21.41
2017-10-09T10:24:21.203Z,21.59
2017-10-09T10:25:31.220Z,21.53
2017-10-09T10:26:41.580Z,21.58
2017-10-09T10:27:51.938Z,21.61
2017-10-09T10:29:01.640Z,21.86
2017-10-09T10:30:11.982Z,22.08
2017-10-09T10:31:22.364Z,22.16
2017-10-09T10:32:32.384Z,22.18
2017-10-09T10:33:42.406Z,22.41
2017-10-09T10:34:52.738Z,22.49
2017-10-09T10:36:02.755Z,22.42
2017-10-09T10:37:13.243Z,22.57
2017-10-09T10:38:23.596Z,22.7
2017-10-09T10:39:33.929Z,22.71
2017-10-09T10:40:43.942Z,22.89
2017-10-09T10:41:53.977Z,22.88
2017-10-09T10:43:04.365Z,22.89
2017-10-09T10:44:14.713Z,22.99
2017-10-09T10:45:24.740Z,22.97
2017-10-09T10:46:35.079Z,22.99
2017-10-09T10:47:45.415Z,22.92
2017-10-09T10:48:55.760Z,22.89
2017-10-09T10:50:06.089Z,22.75
2017-10-09T10:51:16.423Z,22.78
2017-10-09T10:52:26.758Z,22.7
2017-10-09T10:53:37.101Z,22.63
2017-10-09T10:54:47.183Z,22.63
2017-10-09T10:55:57.515Z,22.61
2017-10-09T10:57:07.858Z,22.49
2017-10-09T10:58:18.204Z,21.99
2017-10-09T10:59:28.541Z,21.55
2017-10-09T11:00:38.933Z,21.7
2017-10-09T11:01:49.278Z,22
2017-10-09T11:02:59.306Z,22.31
2017-10-09T11:04:09.652Z,22.38
2017-10-09T11:05:19.999Z,22.55
2017-10-09T11:06:30.379Z,22.66
2017-10-09T11:07:40.399Z,22.76
2017-10-09T11:08:50.745Z,22.71
2017-10-09T11:10:01.113Z,22.6
2017-10-09T11:11:11.459Z,22.73
2017-10-09T11:12:21.856Z,22.15
2017-10-09T11:13:32.210Z,22.27
2017-10-09T11:14:42.549Z,22.46
2017-10-09T11:15:52.939Z,22.63
2017-10-09T11:17:03.270Z,22.73
2017-10-09T11:18:13.349Z,22.92
2017-10-09T11:19:23.379Z,23.16
2017-10-09T11:20:33.718Z,23.35
2017-10-09T11:21:44.052Z,23.52
2017-10-09T11:22:54.633Z,23.64
2017-10-09T11:24:04.962Z,23.84
2017-10-09T11:25:15.310Z,24.03
2017-10-09T11:26:25.654Z,24.18
2017-10-09T11:27:36.008Z,23.89
2017-10-09T11:28:46.355Z,23.48
2017-10-09T11:29:56.763Z,22.99
2017-10-09T11:31:07.112Z,22.55
2017-10-09T11:32:17.460Z,22.29
2017-10-09T11:33:27.477Z,21.96
2017-10-09T11:34:37.200Z,21.99
2017-10-09T11:35:47.595Z,21.7
2017-10-09T11:36:57.620Z,21.46
2017-10-09T11:38:07.981Z,21.21
2017-10-09T11:39:18.344Z,21
2017-10-09T11:40:28.056Z,20.97
2017-10-09T11:41:38.063Z,21.27
2017-10-09T11:42:48.092Z,21.21
2017-10-09T11:43:58.444Z,20.94
2017-10-09T11:45:08.171Z,20.93
2017-10-09T11:46:18.210Z,21.11
2017-10-09T11:47:28.561Z,21.16
2017-10-09T11:48:38.898Z,21.23
2017-10-09T11:49:49.246Z,21.33
2017-10-09T11:50:59.588Z,21.37
2017-10-09T11:52:09.610Z,21.53
2017-10-09T11:53:20.013Z,21.78
2017-10-09T11:54:30.362Z,21.71
2017-10-09T11:55:40.395Z,21.16
2017-10-09T11:56:50.736Z,20.63
2017-10-09T11:58:01.080Z,20.4
2017-10-09T11:59:11.446Z,20.1
2017-10-09T12:00:21.783Z,20.22
2017-10-09T12:01:31.812Z,20.12
2017-10-09T12:02:42.147Z,20.04
2017-10-09T12:03:52.486Z,19.83
2017-10-09T12:05:02.560Z,19.74
2017-10-09T12:06:12.905Z,19.71
2017-10-09T12:07:23.265Z,19.67
2017-10-09T12:08:33.611Z,19.72
2017-10-09T12:09:43.325Z,19.85
2017-10-09T12:10:53.714Z,19.78
2017-10-09T12:12:04.058Z,19.89
2017-10-09T12:13:13.446Z,20.16
2017-10-09T12:14:23.794Z,19.97
2017-10-09T12:15:34.139Z,19.75
2017-10-09T12:16:44.498Z,19.75
2017-10-09T12:17:54.841Z,20.15
2017-10-09T12:19:05.181Z,20.38
2017-10-09T12:20:14.888Z,20.48
2017-10-09T12:21:25.219Z,20.68
2017-10-09T12:22:34.989Z,20.76
2017-10-09T12:23:44.703Z,20.63
2017-10-09T12:24:54.426Z,20.85
2017-10-09T12:26:04.767Z,20.96
2017-10-09T12:27:14.795Z,21.16
2017-10-09T12:28:24.838Z,21.25
2017-10-09T12:29:35.169Z,21.41
2017-10-09T12:30:45.503Z,21.52
2017-10-09T12:31:55.836Z,21.66
2017-10-09T12:33:06.195Z,21.83
2017-10-09T12:34:15.907Z,21.83
2017-10-09T12:35:26.258Z,21.8
2017-10-09T12:36:36.612Z,21.85
2017-10-09T12:37:46.967Z,21.92
2017-10-09T12:38:56.989Z,21.99
2017-10-09T12:40:07.016Z,22.07
2017-10-09T12:41:17.363Z,22.22
2017-10-09T12:42:27.711Z,22.3
2017-10-09T12:43:38.056Z,22.27
2017-10-09T12:44:48.085Z,22.31
2017-10-09T12:45:58.460Z,22.36
2017-10-09T12:47:08.539Z,22.29
2017-10-09T12:48:18.557Z,22.29
2017-10-09T12:49:28.581Z,22.34
2017-10-09T12:50:38.911Z,22.41
2017-10-09T12:51:49.294Z,22.39
2017-10-09T12:52:59.630Z,22.48
2017-10-09T12:54:09.965Z,22.44
2017-10-09T12:55:20.009Z,22.34
2017-10-09T12:56:30.032Z,22.38
2017-10-09T12:57:40.437Z,22.3
2017-10-09T12:58:50.790Z,22.27
2017-10-09T13:00:00.532Z,22.38
2017-10-09T13:01:10.865Z,22.34
2017-10-09T13:02:21.224Z,22.36
2017-10-09T13:03:31.252Z,22.12
2017-10-09T13:04:41.272Z,22.26
2017-10-09T13:05:51.616Z,22.24
2017-10-09T13:07:02.197Z,22.24
2017-10-09T13:08:12.533Z,22.26
2017-10-09T13:09:22.624Z,22.15
2017-10-09T13:10:32.647Z,22.26
2017-10-09T13:11:42.994Z,22.14
2017-10-09T13:12:53.336Z,21.92
2017-10-09T13:14:03.688Z,21.9
2017-10-09T13:15:13.435Z,21.85
2017-10-09T13:16:23.457Z,21.78
2017-10-09T13:17:33.478Z,21.78
2017-10-09T13:18:43.825Z,21.62
2017-10-09T13:19:53.537Z,21.62
2017-10-09T13:21:03.869Z,21.61
2017-10-09T13:22:13.898Z,21.64
2017-10-09T13:23:24.233Z,21.55
2017-10-09T13:24:34.578Z,21.62
2017-10-09T13:25:44.913Z,21.53
2017-10-09T13:26:55.247Z,21.33
2017-10-09T13:28:04.964Z,20.94
2017-10-09T13:29:15.307Z,20.93
2017-10-09T13:30:25.356Z,20.83
2017-10-09T13:31:35.698Z,20.54
2017-10-09T13:32:45.770Z,20.34
2017-10-09T13:33:55.827Z,20.12
2017-10-09T13:35:06.177Z,19.98
2017-10-09T13:36:16.207Z,19.8
2017-10-09T13:37:26.558Z,19.63
2017-10-09T13:38:36.896Z,19.61
2017-10-09T13:39:47.242Z,19.64
2017-10-09T13:40:57.569Z,19.64
2017-10-09T13:42:07.922Z,19.71
2017-10-09T13:43:18.285Z,19.55
2017-10-09T13:44:28.687Z,19.45
2017-10-09T13:45:39.026Z,19.32
2017-10-09T13:46:49.053Z,19.37
2017-10-09T13:47:59.399Z,19.55
2017-10-09T13:49:09.741Z,19.74
2017-10-09T13:50:19.495Z,19.92
2017-10-09T13:51:29.521Z,20.15
2017-10-09T13:52:39.879Z,20.04
2017-10-09T13:53:50.228Z,20.16
2017-10-09T13:55:00.576Z,20.18
2017-10-09T13:56:10.972Z,19.92
2017-10-09T13:57:21.313Z,19.74
2017-10-09T13:58:31.654Z,19.63
2017-10-09T13:59:41.996Z,19.67
2017-10-09T14:00:52.328Z,19.68
2017-10-09T14:02:02.682Z,19.53
2017-10-09T14:03:13.034Z,19.75
2017-10-09T14:04:23.393Z,19.85
2017-10-09T14:05:33.094Z,19.95
2017-10-09T14:06:43.435Z,20.11
2017-10-09T14:07:53.795Z,20.11
2017-10-09T14:09:04.138Z,20.05
2017-10-09T14:10:14.167Z,20.01
2017-10-09T14:11:24.516Z,19.74
2017-10-09T14:12:34.553Z,19.86
2017-10-09T14:13:44.623Z,19.79
2017-10-09T14:14:54.996Z,19.68
2017-10-09T14:16:05.351Z,19.57
2017-10-09T14:17:15.706Z,19.52
2017-10-09T14:18:26.059Z,19.47
2017-10-09T14:19:36.447Z,19.32
2017-10-09T14:20:46.483Z,19.07
2017-10-09T14:21:56.833Z,18.89
2017-10-09T14:23:06.874Z,18.91
2017-10-09T14:24:16.899Z,18.84
2017-10-09T14:25:26.920Z,18.93
2017-10-09T14:26:36.955Z,18.87
2017-10-09T14:27:46.991Z,18.79
2017-10-09T14:28:57.325Z,18.69
2017-10-09T14:30:07.357Z,18.59
2017-10-09T14:40:37.557Z,18.19
2017-10-09T14:41:47.949Z,18.1
2017-10-09T14:42:58.444Z,18.05
2017-10-09T14:44:08.543Z,18.05
2017-10-09T14:45:18.620Z,18.01
2017-10-09T14:46:29.024Z,17.92
2017-10-09T14:47:39.451Z,17.84
2017-10-09T14:48:49.587Z,17.81
2017-10-09T14:49:59.693Z,17.77
2017-10-09T14:51:10.344Z,17.76
2017-10-09T14:52:21.318Z,17.73
2017-10-09T14:53:31.402Z,17.69
2017-10-09T14:54:41.859Z,17.69
2017-10-09T14:55:52.287Z,17.63
2017-10-09T14:57:02.696Z,17.52
2017-10-09T14:58:13.114Z,17.55
2017-10-09T14:59:23.188Z,17.54
2017-10-09T15:00:33.640Z,17.52
2017-10-09T15:01:44.038Z,17.49
2017-10-09T15:02:54.444Z,17.5
2017-10-09T15:04:04.517Z,17.46
2017-10-09T15:05:14.598Z,17.43
2017-10-09T15:06:25.068Z,17.49
2017-10-09T15:07:35.137Z,17.39
2017-10-09T15:08:45.220Z,17.35
2017-10-09T15:09:55.630Z,17.42
2017-10-09T15:11:06.021Z,17.36
2017-10-09T15:12:16.097Z,17.32
2017-10-09T15:13:26.495Z,17.31
2017-10-09T15:14:36.952Z,17.35
2017-10-09T15:15:47.018Z,17.39
2017-10-09T15:16:57.088Z,17.31
2017-10-09T15:18:07.178Z,17.32
2017-10-09T15:19:17.589Z,17.31
2017-10-09T15:20:27.667Z,17.3
2017-10-09T15:21:38.073Z,17.31
2017-10-09T15:22:48.150Z,17.31
2017-10-09T15:23:58.565Z,17.28
2017-10-09T15:25:08.655Z,17.2
2017-10-09T15:26:19.040Z,17.25
2017-10-09T15:27:29.126Z,17.18
2017-10-09T15:28:39.534Z,17.24
2017-10-09T15:29:49.670Z,17.13
2017-10-09T15:31:00.080Z,17.1
2017-10-09T15:32:09.822Z,17.13
2017-10-09T15:33:20.229Z,17.09
2017-10-09T15:34:30.631Z,17.09
2017-10-09T15:35:40.699Z,17.06
2017-10-09T15:36:50.780Z,16.88
2017-10-09T15:38:00.863Z,16.91
2017-10-09T15:39:10.955Z,16.97
2017-10-09T15:40:20.690Z,16.97
2017-10-09T15:41:31.143Z,16.9
2017-10-09T15:42:41.550Z,16.8
2017-10-09T15:43:52.001Z,16.7
2017-10-09T15:45:02.083Z,16.74
2017-10-09T15:46:12.375Z,16.63
2017-10-09T15:47:22.446Z,16.58
2017-10-09T15:48:32.539Z,16.54
2017-10-09T15:49:42.307Z,16.55